sensor_id;sensor_type;location;lat;lon;timestamp;temperature;humidity
74822;DHT22;63353;48.702;8.884;2023-05-10T00:00:23;12.00;99.90
74822;DHT22;63353;48.702;8.884;2023-05-10T00:02:49;12.00;99.90
74822;DHT22;63353;48.702;8.884;2023-05-10T00:05:15;11.90;99.90
74822;DHT22;63353;48.702;8.884;2023-05-10T00:07:40;11.90;99.90
74822;DHT22;63353;48.702;8.884;2023-05-10T00:10:10;11.80;99.90
74822;DHT22;63353;48.702;8.884;2023-05-10T00:12:39;11.80;99.90
74822;DHT22;63353;48.702;8.884;2023-05-10T00:15:11;11.70;99.90
74822;DHT22;63353;48.702;8.884;2023-05-10T00:17:39;11.70;99.90
74822;DHT22;63353;48.702;8.884;2023-05-10T00:20:05;11.60;99.90
74822;DHT22;63353;48.702;8.884;2023-05-10T00:22:37;11.60;99.90
74822;DHT22;63353;48.702;8.884;2023-05-10T00:25:03;11.50;99.90
74822;DHT22;63353;48.702;8.884;2023-05-10T00:27:29;11.50;99.90
74822;DHT22;63353;48.702;8.884;2023-05-10T00:30:04;11.50;99.90
74822;DHT22;63353;48.702;8.884;2023-05-10T00:32:30;11.50;99.90
74822;DHT22;63353;48.702;8.884;2023-05-10T00:34:59;11.50;99.90
74822;DHT22;63353;48.702;8.884;2023-05-10T00:37:27;11.40;99.90
74822;DHT22;63353;48.702;8.884;2023-05-10T00:39:53;11.40;99.90
74822;DHT22;63353;48.702;8.884;2023-05-10T00:42:19;11.40;99.90
74822;DHT22;63353;48.702;8.884;2023-05-10T00:44:48;11.40;99.90
74822;DHT22;63353;48.702;8.884;2023-05-10T00:47:13;11.40;99.90
74822;DHT22;63353;48.702;8.884;2023-05-10T00:49:40;11.40;99.90
74822;DHT22;63353;48.702;8.884;2023-05-10T00:52:11;11.40;99.90
74822;DHT22;63353;48.702;8.884;2023-05-10T00:54:43;11.40;99.90
74822;DHT22;63353;48.702;8.884;2023-05-10T00:57:09;11.40;99.90
74822;DHT22;63353;48.702;8.884;2023-05-10T00:59:34;11.30;99.90
74822;DHT22;63353;48.702;8.884;2023-05-10T01:02:03;11.40;99.90
74822;DHT22;63353;48.702;8.884;2023-05-10T01:04:32;11.40;99.90
74822;DHT22;63353;48.702;8.884;2023-05-10T01:06:58;11.40;99.90
74822;DHT22;63353;48.702;8.884;2023-05-10T01:09:24;11.40;99.90
74822;DHT22;63353;48.702;8.884;2023-05-10T01:11:51;11.40;99.90
74822;DHT22;63353;48.702;8.884;2023-05-10T01:14:19;11.40;99.90
74822;DHT22;63353;48.702;8.884;2023-05-10T01:17:03;11.40;99.90
74822;DHT22;63353;48.702;8.884;2023-05-10T01:19:31;11.30;99.90
74822;DHT22;63353;48.702;8.884;2023-05-10T01:39:33;11.20;99.90
74822;DHT22;63353;48.702;8.884;2023-05-10T01:42:10;11.20;99.90
74822;DHT22;63353;48.702;8.884;2023-05-10T01:50:02;11.10;99.90
74822;DHT22;63353;48.702;8.884;2023-05-10T01:52:41;11.10;99.90
74822;DHT22;63353;48.702;8.884;2023-05-10T01:55:16;11.10;99.90
74822;DHT22;63353;48.702;8.884;2023-05-10T01:57:43;11.10;99.90
74822;DHT22;63353;48.702;8.884;2023-05-10T02:00:10;11.10;99.90
74822;DHT22;63353;48.702;8.884;2023-05-10T02:02:39;11.10;99.90
74822;DHT22;63353;48.702;8.884;2023-05-10T02:05:08;11.10;99.90
74822;DHT22;63353;48.702;8.884;2023-05-10T02:07:35;11.10;99.90
74822;DHT22;63353;48.702;8.884;2023-05-10T02:10:05;11.10;99.90
74822;DHT22;63353;48.702;8.884;2023-05-10T02:12:36;11.00;99.90
74822;DHT22;63353;48.702;8.884;2023-05-10T02:15:04;11.00;99.90
74822;DHT22;63353;48.702;8.884;2023-05-10T02:17:34;10.90;99.90
74822;DHT22;63353;48.702;8.884;2023-05-10T02:20:03;10.90;99.90
74822;DHT22;63353;48.702;8.884;2023-05-10T02:22:30;10.80;99.90
74822;DHT22;63353;48.702;8.884;2023-05-10T02:25:00;10.70;99.90
74822;DHT22;63353;48.702;8.884;2023-05-10T02:27:30;10.60;99.90
74822;DHT22;63353;48.702;8.884;2023-05-10T02:29:57;10.60;99.90
74822;DHT22;63353;48.702;8.884;2023-05-10T02:32:26;10.60;99.90
74822;DHT22;63353;48.702;8.884;2023-05-10T02:34:52;10.70;99.90
74822;DHT22;63353;48.702;8.884;2023-05-10T02:37:22;10.80;99.90
74822;DHT22;63353;48.702;8.884;2023-05-10T02:39:52;10.80;99.90
74822;DHT22;63353;48.702;8.884;2023-05-10T02:42:22;10.80;99.90
74822;DHT22;63353;48.702;8.884;2023-05-10T02:44:59;10.80;99.90
74822;DHT22;63353;48.702;8.884;2023-05-10T02:47:31;10.80;99.90
74822;DHT22;63353;48.702;8.884;2023-05-10T02:49:57;10.80;99.90
74822;DHT22;63353;48.702;8.884;2023-05-10T02:52:30;10.90;99.90
74822;DHT22;63353;48.702;8.884;2023-05-10T02:55:01;10.90;99.90
74822;DHT22;63353;48.702;8.884;2023-05-10T02:57:34;10.90;99.90
74822;DHT22;63353;48.702;8.884;2023-05-10T03:00:05;10.90;99.90
74822;DHT22;63353;48.702;8.884;2023-05-10T03:02:36;10.90;99.90
74822;DHT22;63353;48.702;8.884;2023-05-10T03:05:02;10.90;99.90
74822;DHT22;63353;48.702;8.884;2023-05-10T03:07:28;10.80;99.90
74822;DHT22;63353;48.702;8.884;2023-05-10T03:09:55;10.80;99.90
74822;DHT22;63353;48.702;8.884;2023-05-10T03:13:31;10.80;99.90
74822;DHT22;63353;48.702;8.884;2023-05-10T03:18:29;10.80;99.90
74822;DHT22;63353;48.702;8.884;2023-05-10T03:21:03;10.90;99.90
74822;DHT22;63353;48.702;8.884;2023-05-10T03:26:07;10.90;99.90
74822;DHT22;63353;48.702;8.884;2023-05-10T03:28:34;10.90;99.90
74822;DHT22;63353;48.702;8.884;2023-05-10T03:31:02;11.00;99.90
74822;DHT22;63353;48.702;8.884;2023-05-10T03:33:29;11.00;99.90
74822;DHT22;63353;48.702;8.884;2023-05-10T03:35:55;11.00;99.90
74822;DHT22;63353;48.702;8.884;2023-05-10T03:38:20;11.00;99.90
74822;DHT22;63353;48.702;8.884;2023-05-10T03:40:49;10.90;99.90
74822;DHT22;63353;48.702;8.884;2023-05-10T03:43:14;11.00;99.90
74822;DHT22;63353;48.702;8.884;2023-05-10T03:45:40;10.90;99.90
74822;DHT22;63353;48.702;8.884;2023-05-10T03:48:06;10.90;99.90
74822;DHT22;63353;48.702;8.884;2023-05-10T03:50:31;10.80;99.90
74822;DHT22;63353;48.702;8.884;2023-05-10T03:52:57;10.80;99.90
74822;DHT22;63353;48.702;8.884;2023-05-10T03:55:23;10.90;99.90
74822;DHT22;63353;48.702;8.884;2023-05-10T03:57:49;10.90;99.90
74822;DHT22;63353;48.702;8.884;2023-05-10T04:00:19;10.90;99.90
74822;DHT22;63353;48.702;8.884;2023-05-10T04:02:45;11.00;99.90
74822;DHT22;63353;48.702;8.884;2023-05-10T04:05:11;11.00;99.90
74822;DHT22;63353;48.702;8.884;2023-05-10T04:07:36;11.00;99.90
74822;DHT22;63353;48.702;8.884;2023-05-10T04:10:05;10.90;99.90
74822;DHT22;63353;48.702;8.884;2023-05-10T04:12:31;10.90;99.90
74822;DHT22;63353;48.702;8.884;2023-05-10T04:14:57;11.00;99.90
74822;DHT22;63353;48.702;8.884;2023-05-10T04:17:23;11.10;99.90
74822;DHT22;63353;48.702;8.884;2023-05-10T04:19:48;11.00;99.90
74822;DHT22;63353;48.702;8.884;2023-05-10T04:22:14;11.00;99.90
74822;DHT22;63353;48.702;8.884;2023-05-10T04:24:42;10.90;99.90
74822;DHT22;63353;48.702;8.884;2023-05-10T04:27:08;10.90;99.90
74822;DHT22;63353;48.702;8.884;2023-05-10T04:29:33;11.00;99.90
74822;DHT22;63353;48.702;8.884;2023-05-10T04:31:59;11.00;99.90
74822;DHT22;63353;48.702;8.884;2023-05-10T04:34:30;10.90;99.90
74822;DHT22;63353;48.702;8.884;2023-05-10T04:36:56;10.90;99.90
74822;DHT22;63353;48.702;8.884;2023-05-10T04:39:22;10.90;99.90
74822;DHT22;63353;48.702;8.884;2023-05-10T04:41:48;10.80;99.90
74822;DHT22;63353;48.702;8.884;2023-05-10T04:44:13;10.80;99.90
74822;DHT22;63353;48.702;8.884;2023-05-10T04:46:39;10.80;99.90
74822;DHT22;63353;48.702;8.884;2023-05-10T04:49:04;10.90;99.90
74822;DHT22;63353;48.702;8.884;2023-05-10T04:51:30;10.90;99.90
74822;DHT22;63353;48.702;8.884;2023-05-10T04:53:57;10.80;99.90
74822;DHT22;63353;48.702;8.884;2023-05-10T04:56:22;11.00;99.90
74822;DHT22;63353;48.702;8.884;2023-05-10T04:58:48;10.90;99.90
74822;DHT22;63353;48.702;8.884;2023-05-10T05:01:20;11.00;99.90
74822;DHT22;63353;48.702;8.884;2023-05-10T05:04:01;11.00;99.90
74822;DHT22;63353;48.702;8.884;2023-05-10T05:06:30;11.00;99.90
74822;DHT22;63353;48.702;8.884;2023-05-10T05:08:56;11.00;99.90
74822;DHT22;63353;48.702;8.884;2023-05-10T05:11:27;11.00;99.90
74822;DHT22;63353;48.702;8.884;2023-05-10T05:13:53;11.10;99.90
74822;DHT22;63353;48.702;8.884;2023-05-10T05:16:19;11.20;99.90
74822;DHT22;63353;48.702;8.884;2023-05-10T05:18:44;11.20;99.90
74822;DHT22;63353;48.702;8.884;2023-05-10T05:21:16;11.30;99.90
74822;DHT22;63353;48.702;8.884;2023-05-10T05:23:43;11.30;99.90
74822;DHT22;63353;48.702;8.884;2023-05-10T05:26:09;11.30;99.90
74822;DHT22;63353;48.702;8.884;2023-05-10T05:28:35;11.40;99.90
74822;DHT22;63353;48.702;8.884;2023-05-10T05:31:06;11.50;99.90
74822;DHT22;63353;48.702;8.884;2023-05-10T05:33:36;11.50;99.90
74822;DHT22;63353;48.702;8.884;2023-05-10T05:36:08;11.50;99.90
74822;DHT22;63353;48.702;8.884;2023-05-10T05:38:34;11.60;99.90
74822;DHT22;63353;48.702;8.884;2023-05-10T05:41:00;11.70;99.90
74822;DHT22;63353;48.702;8.884;2023-05-10T05:43:29;11.70;99.90
74822;DHT22;63353;48.702;8.884;2023-05-10T05:45:58;11.80;99.90
74822;DHT22;63353;48.702;8.884;2023-05-10T05:48:29;11.70;99.90
74822;DHT22;63353;48.702;8.884;2023-05-10T05:51:13;11.70;99.90
74822;DHT22;63353;48.702;8.884;2023-05-10T05:53:48;11.80;99.90
74822;DHT22;63353;48.702;8.884;2023-05-10T05:56:13;11.80;99.90
74822;DHT22;63353;48.702;8.884;2023-05-10T05:58:39;11.80;99.90
74822;DHT22;63353;48.702;8.884;2023-05-10T06:01:08;11.80;99.90
74822;DHT22;63353;48.702;8.884;2023-05-10T06:03:37;11.70;99.90
74822;DHT22;63353;48.702;8.884;2023-05-10T06:06:06;11.80;99.90
74822;DHT22;63353;48.702;8.884;2023-05-10T06:08:31;11.90;99.90
74822;DHT22;63353;48.702;8.884;2023-05-10T06:10:57;12.00;99.90
74822;DHT22;63353;48.702;8.884;2023-05-10T06:13:23;12.00;99.90
74822;DHT22;63353;48.702;8.884;2023-05-10T06:15:48;11.90;99.90
74822;DHT22;63353;48.702;8.884;2023-05-10T06:18:17;12.00;99.90
74822;DHT22;63353;48.702;8.884;2023-05-10T06:20:49;12.20;99.90
74822;DHT22;63353;48.702;8.884;2023-05-10T06:23:15;12.10;99.90
74822;DHT22;63353;48.702;8.884;2023-05-10T06:25:41;12.20;99.90
74822;DHT22;63353;48.702;8.884;2023-05-10T06:28:06;12.20;99.90
74822;DHT22;63353;48.702;8.884;2023-05-10T06:30:36;12.30;99.90
74822;DHT22;63353;48.702;8.884;2023-05-10T06:33:02;12.30;99.90
74822;DHT22;63353;48.702;8.884;2023-05-10T06:35:28;12.50;99.90
74822;DHT22;63353;48.702;8.884;2023-05-10T06:37:54;12.70;99.90
74822;DHT22;63353;48.702;8.884;2023-05-10T06:40:20;12.90;99.90
74822;DHT22;63353;48.702;8.884;2023-05-10T06:42:52;13.00;99.90
74822;DHT22;63353;48.702;8.884;2023-05-10T06:45:21;13.00;99.90
74822;DHT22;63353;48.702;8.884;2023-05-10T06:47:50;13.10;99.90
74822;DHT22;63353;48.702;8.884;2023-05-10T06:50:15;13.20;99.90
74822;DHT22;63353;48.702;8.884;2023-05-10T06:52:41;13.30;99.90
74822;DHT22;63353;48.702;8.884;2023-05-10T06:55:10;13.50;99.90
74822;DHT22;63353;48.702;8.884;2023-05-10T06:57:42;13.40;99.90
74822;DHT22;63353;48.702;8.884;2023-05-10T07:00:14;13.40;99.90
74822;DHT22;63353;48.702;8.884;2023-05-10T07:02:40;13.50;99.90
74822;DHT22;63353;48.702;8.884;2023-05-10T07:05:06;13.40;99.90
74822;DHT22;63353;48.702;8.884;2023-05-10T07:07:32;13.40;99.90
74822;DHT22;63353;48.702;8.884;2023-05-10T07:10:07;13.50;99.90
74822;DHT22;63353;48.702;8.884;2023-05-10T07:12:33;13.30;99.90
74822;DHT22;63353;48.702;8.884;2023-05-10T07:15:02;13.20;99.90
74822;DHT22;63353;48.702;8.884;2023-05-10T07:17:34;13.30;99.90
74822;DHT22;63353;48.702;8.884;2023-05-10T07:20:03;13.20;99.90
74822;DHT22;63353;48.702;8.884;2023-05-10T07:22:32;13.20;99.90
74822;DHT22;63353;48.702;8.884;2023-05-10T07:25:00;13.30;99.90
74822;DHT22;63353;48.702;8.884;2023-05-10T07:27:29;13.30;99.90
74822;DHT22;63353;48.702;8.884;2023-05-10T07:29:56;13.30;99.90
74822;DHT22;63353;48.702;8.884;2023-05-10T07:32:25;13.30;99.90
74822;DHT22;63353;48.702;8.884;2023-05-10T07:34:54;13.50;99.90
74822;DHT22;63353;48.702;8.884;2023-05-10T07:37:22;13.70;99.90
74822;DHT22;63353;48.702;8.884;2023-05-10T07:39:48;13.80;99.90
74822;DHT22;63353;48.702;8.884;2023-05-10T07:42:13;13.70;99.90
74822;DHT22;63353;48.702;8.884;2023-05-10T07:44:42;13.90;99.90
74822;DHT22;63353;48.702;8.884;2023-05-10T07:47:08;14.10;99.90
74822;DHT22;63353;48.702;8.884;2023-05-10T07:49:34;14.20;99.90
74822;DHT22;63353;48.702;8.884;2023-05-10T07:52:01;14.20;99.90
74822;DHT22;63353;48.702;8.884;2023-05-10T07:54:34;14.20;99.90
74822;DHT22;63353;48.702;8.884;2023-05-10T07:57:00;14.30;99.90
74822;DHT22;63353;48.702;8.884;2023-05-10T07:59:26;14.30;99.90
74822;DHT22;63353;48.702;8.884;2023-05-10T08:01:54;14.40;99.90
74822;DHT22;63353;48.702;8.884;2023-05-10T08:04:20;14.40;99.90
74822;DHT22;63353;48.702;8.884;2023-05-10T08:06:52;14.20;99.90
74822;DHT22;63353;48.702;8.884;2023-05-10T08:09:30;14.20;99.90
74822;DHT22;63353;48.702;8.884;2023-05-10T08:11:55;14.20;99.90
74822;DHT22;63353;48.702;8.884;2023-05-10T08:14:24;14.00;99.90
74822;DHT22;63353;48.702;8.884;2023-05-10T08:16:53;13.90;99.90
74822;DHT22;63353;48.702;8.884;2023-05-10T08:19:25;13.90;99.90
74822;DHT22;63353;48.702;8.884;2023-05-10T08:21:53;14.10;99.90
74822;DHT22;63353;48.702;8.884;2023-05-10T08:24:23;14.00;99.90
74822;DHT22;63353;48.702;8.884;2023-05-10T08:26:49;14.00;99.90
74822;DHT22;63353;48.702;8.884;2023-05-10T08:29:16;14.10;99.90
74822;DHT22;63353;48.702;8.884;2023-05-10T08:31:45;14.10;99.90
74822;DHT22;63353;48.702;8.884;2023-05-10T08:34:17;14.20;99.90
74822;DHT22;63353;48.702;8.884;2023-05-10T08:36:45;14.10;99.90
74822;DHT22;63353;48.702;8.884;2023-05-10T08:39:23;14.20;99.90
74822;DHT22;63353;48.702;8.884;2023-05-10T08:42:02;14.20;99.90
74822;DHT22;63353;48.702;8.884;2023-05-10T08:44:38;14.40;99.90
74822;DHT22;63353;48.702;8.884;2023-05-10T08:47:05;14.50;99.90
74822;DHT22;63353;48.702;8.884;2023-05-10T08:49:34;14.50;99.90
74822;DHT22;63353;48.702;8.884;2023-05-10T08:52:04;14.40;99.90
74822;DHT22;63353;48.702;8.884;2023-05-10T08:54:32;14.40;99.90
74822;DHT22;63353;48.702;8.884;2023-05-10T08:56:58;14.40;99.90
74822;DHT22;63353;48.702;8.884;2023-05-10T08:59:30;14.30;99.90
74822;DHT22;63353;48.702;8.884;2023-05-10T09:01:59;14.10;99.90
74822;DHT22;63353;48.702;8.884;2023-05-10T09:04:28;14.30;99.90
74822;DHT22;63353;48.702;8.884;2023-05-10T09:06:54;14.50;99.90
74822;DHT22;63353;48.702;8.884;2023-05-10T09:09:29;14.90;99.90
74822;DHT22;63353;48.702;8.884;2023-05-10T09:12:01;15.20;99.90
74822;DHT22;63353;48.702;8.884;2023-05-10T09:14:27;15.20;99.90
74822;DHT22;63353;48.702;8.884;2023-05-10T09:16:54;15.30;99.90
74822;DHT22;63353;48.702;8.884;2023-05-10T09:19:27;15.20;99.90
74822;DHT22;63353;48.702;8.884;2023-05-10T09:21:56;15.20;99.90
74822;DHT22;63353;48.702;8.884;2023-05-10T09:24:30;15.30;99.90
74822;DHT22;63353;48.702;8.884;2023-05-10T09:26:57;15.40;99.90
74822;DHT22;63353;48.702;8.884;2023-05-10T09:29:23;15.40;99.90
74822;DHT22;63353;48.702;8.884;2023-05-10T09:31:52;15.50;99.90
74822;DHT22;63353;48.702;8.884;2023-05-10T09:34:33;15.40;99.90
74822;DHT22;63353;48.702;8.884;2023-05-10T09:37:03;15.30;99.90
74822;DHT22;63353;48.702;8.884;2023-05-10T09:39:38;15.10;99.90
74822;DHT22;63353;48.702;8.884;2023-05-10T09:42:13;15.20;99.90
74822;DHT22;63353;48.702;8.884;2023-05-10T09:44:43;15.40;99.90
74822;DHT22;63353;48.702;8.884;2023-05-10T09:47:17;15.60;99.90
74822;DHT22;63353;48.702;8.884;2023-05-10T09:49:43;15.50;99.90
74822;DHT22;63353;48.702;8.884;2023-05-10T09:52:08;15.40;99.90
74822;DHT22;63353;48.702;8.884;2023-05-10T09:54:37;15.40;99.90
74822;DHT22;63353;48.702;8.884;2023-05-10T09:57:03;15.40;99.90
74822;DHT22;63353;48.702;8.884;2023-05-10T09:59:33;15.70;99.90
74822;DHT22;63353;48.702;8.884;2023-05-10T10:02:03;15.80;99.90
74822;DHT22;63353;48.702;8.884;2023-05-10T10:04:31;15.90;99.90
74822;DHT22;63353;48.702;8.884;2023-05-10T10:07:02;16.30;99.90
74822;DHT22;63353;48.702;8.884;2023-05-10T10:09:29;16.10;99.90
74822;DHT22;63353;48.702;8.884;2023-05-10T10:11:59;15.60;99.90
74822;DHT22;63353;48.702;8.884;2023-05-10T10:14:25;15.90;99.90
74822;DHT22;63353;48.702;8.884;2023-05-10T10:16:57;16.10;99.90
74822;DHT22;63353;48.702;8.884;2023-05-10T10:19:25;16.40;99.90
74822;DHT22;63353;48.702;8.884;2023-05-10T10:21:52;16.60;99.90
74822;DHT22;63353;48.702;8.884;2023-05-10T10:24:24;16.30;99.90
74822;DHT22;63353;48.702;8.884;2023-05-10T10:26:52;15.90;99.90
74822;DHT22;63353;48.702;8.884;2023-05-10T10:29:25;15.20;99.90
74822;DHT22;63353;48.702;8.884;2023-05-10T10:32:06;14.60;99.90
74822;DHT22;63353;48.702;8.884;2023-05-10T10:34:37;13.80;99.90
74822;DHT22;63353;48.702;8.884;2023-05-10T10:37:05;13.30;99.90
74822;DHT22;63353;48.702;8.884;2023-05-10T10:39:35;13.00;99.90
74822;DHT22;63353;48.702;8.884;2023-05-10T10:42:05;12.60;99.90
74822;DHT22;63353;48.702;8.884;2023-05-10T10:44:36;12.70;99.90
74822;DHT22;63353;48.702;8.884;2023-05-10T10:47:27;12.60;99.90
74822;DHT22;63353;48.702;8.884;2023-05-10T10:50:27;12.70;99.90
74822;DHT22;63353;48.702;8.884;2023-05-10T10:52:53;12.70;99.90
74822;DHT22;63353;48.702;8.884;2023-05-10T10:55:20;12.90;99.90
74822;DHT22;63353;48.702;8.884;2023-05-10T10:58:03;13.10;99.90
74822;DHT22;63353;48.702;8.884;2023-05-10T11:00:31;13.20;99.90
74822;DHT22;63353;48.702;8.884;2023-05-10T11:03:10;13.20;99.90
74822;DHT22;63353;48.702;8.884;2023-05-10T11:08:33;13.10;99.90
74822;DHT22;63353;48.702;8.884;2023-05-10T11:13:34;13.70;99.90
74822;DHT22;63353;48.702;8.884;2023-05-10T11:18:37;14.00;99.90
74822;DHT22;63353;48.702;8.884;2023-05-10T11:21:03;14.10;99.90
74822;DHT22;63353;48.702;8.884;2023-05-10T11:23:32;14.70;99.90
74822;DHT22;63353;48.702;8.884;2023-05-10T11:26:01;14.40;99.90
74822;DHT22;63353;48.702;8.884;2023-05-10T11:28:27;14.40;99.90
74822;DHT22;63353;48.702;8.884;2023-05-10T11:30:54;14.70;99.90
74822;DHT22;63353;48.702;8.884;2023-05-10T11:33:23;14.80;99.90
74822;DHT22;63353;48.702;8.884;2023-05-10T11:35:52;15.00;99.90
74822;DHT22;63353;48.702;8.884;2023-05-10T11:38:20;15.20;99.90
74822;DHT22;63353;48.702;8.884;2023-05-10T11:40:46;15.20;99.90
74822;DHT22;63353;48.702;8.884;2023-05-10T11:43:14;15.40;99.90
74822;DHT22;63353;48.702;8.884;2023-05-10T11:45:41;15.50;99.90
74822;DHT22;63353;48.702;8.884;2023-05-10T11:48:07;15.40;99.90
74822;DHT22;63353;48.702;8.884;2023-05-10T11:50:36;15.40;99.90
74822;DHT22;63353;48.702;8.884;2023-05-10T11:53:05;15.60;99.90
74822;DHT22;63353;48.702;8.884;2023-05-10T11:55:33;15.80;99.90
74822;DHT22;63353;48.702;8.884;2023-05-10T11:58:01;15.70;99.90
74822;DHT22;63353;48.702;8.884;2023-05-10T12:00:31;15.40;99.90
74822;DHT22;63353;48.702;8.884;2023-05-10T12:02:57;15.20;99.90
74822;DHT22;63353;48.702;8.884;2023-05-10T12:05:26;15.00;99.90
74822;DHT22;63353;48.702;8.884;2023-05-10T12:08:11;15.00;99.90
74822;DHT22;63353;48.702;8.884;2023-05-10T12:10:39;14.80;99.90
74822;DHT22;63353;48.702;8.884;2023-05-10T12:13:05;15.00;99.90
74822;DHT22;63353;48.702;8.884;2023-05-10T12:15:35;14.60;99.90
74822;DHT22;63353;48.702;8.884;2023-05-10T12:18:00;14.70;99.90
74822;DHT22;63353;48.702;8.884;2023-05-10T12:20:27;15.00;99.90
74822;DHT22;63353;48.702;8.884;2023-05-10T12:22:55;15.20;99.90
74822;DHT22;63353;48.702;8.884;2023-05-10T12:25:23;15.20;99.90
74822;DHT22;63353;48.702;8.884;2023-05-10T12:27:51;15.10;99.90
74822;DHT22;63353;48.702;8.884;2023-05-10T12:32:49;15.30;99.90
74822;DHT22;63353;48.702;8.884;2023-05-10T12:35:15;15.50;99.90
74822;DHT22;63353;48.702;8.884;2023-05-10T12:37:45;15.80;99.90
74822;DHT22;63353;48.702;8.884;2023-05-10T12:40:11;16.00;99.90
74822;DHT22;63353;48.702;8.884;2023-05-10T12:42:40;15.70;99.90
74822;DHT22;63353;48.702;8.884;2023-05-10T12:45:06;15.70;99.90
74822;DHT22;63353;48.702;8.884;2023-05-10T12:47:33;15.60;99.90
74822;DHT22;63353;48.702;8.884;2023-05-10T12:50:00;15.70;99.90
74822;DHT22;63353;48.702;8.884;2023-05-10T12:52:26;15.80;99.90
74822;DHT22;63353;48.702;8.884;2023-05-10T12:54:53;15.70;99.90
74822;DHT22;63353;48.702;8.884;2023-05-10T12:57:27;15.90;99.90
74822;DHT22;63353;48.702;8.884;2023-05-10T13:00:02;16.00;99.90
74822;DHT22;63353;48.702;8.884;2023-05-10T13:02:28;16.20;99.90
74822;DHT22;63353;48.702;8.884;2023-05-10T13:04:56;16.10;99.90
74822;DHT22;63353;48.702;8.884;2023-05-10T13:07:25;16.00;99.90
74822;DHT22;63353;48.702;8.884;2023-05-10T13:09:54;15.90;99.90
74822;DHT22;63353;48.702;8.884;2023-05-10T13:12:19;15.40;99.90
74822;DHT22;63353;48.702;8.884;2023-05-10T13:14:45;15.30;99.90
74822;DHT22;63353;48.702;8.884;2023-05-10T13:17:23;15.30;99.90
74822;DHT22;63353;48.702;8.884;2023-05-10T13:19:49;15.30;99.90
74822;DHT22;63353;48.702;8.884;2023-05-10T13:22:14;15.30;99.90
74822;DHT22;63353;48.702;8.884;2023-05-10T13:24:43;15.60;99.90
74822;DHT22;63353;48.702;8.884;2023-05-10T13:27:08;15.70;99.90
74822;DHT22;63353;48.702;8.884;2023-05-10T13:29:34;15.70;99.90
74822;DHT22;63353;48.702;8.884;2023-05-10T13:32:00;15.60;99.90
74822;DHT22;63353;48.702;8.884;2023-05-10T13:34:26;15.60;99.90
74822;DHT22;63353;48.702;8.884;2023-05-10T13:36:52;15.50;99.90
74822;DHT22;63353;48.702;8.884;2023-05-10T13:39:19;15.40;99.90
74822;DHT22;63353;48.702;8.884;2023-05-10T13:41:48;15.40;99.90
74822;DHT22;63353;48.702;8.884;2023-05-10T13:44:15;15.60;99.90
74822;DHT22;63353;48.702;8.884;2023-05-10T13:46:47;15.70;99.90
74822;DHT22;63353;48.702;8.884;2023-05-10T13:49:12;15.80;99.90
74822;DHT22;63353;48.702;8.884;2023-05-10T13:51:44;15.90;99.90
74822;DHT22;63353;48.702;8.884;2023-05-10T13:54:10;16.30;99.90
74822;DHT22;63353;48.702;8.884;2023-05-10T13:56:35;16.70;99.90
74822;DHT22;63353;48.702;8.884;2023-05-10T13:59:10;17.00;99.90
74822;DHT22;63353;48.702;8.884;2023-05-10T14:01:35;17.10;99.90
74822;DHT22;63353;48.702;8.884;2023-05-10T14:04:04;17.20;99.90
74822;DHT22;63353;48.702;8.884;2023-05-10T14:06:33;17.00;99.90
74822;DHT22;63353;48.702;8.884;2023-05-10T14:09:08;16.90;99.90
74822;DHT22;63353;48.702;8.884;2023-05-10T14:11:37;16.90;99.90
74822;DHT22;63353;48.702;8.884;2023-05-10T14:14:09;16.50;99.90
74822;DHT22;63353;48.702;8.884;2023-05-10T14:16:35;16.50;99.90
74822;DHT22;63353;48.702;8.884;2023-05-10T14:19:10;16.40;99.90
74822;DHT22;63353;48.702;8.884;2023-05-10T14:21:36;16.20;99.90
74822;DHT22;63353;48.702;8.884;2023-05-10T14:24:07;16.00;99.90
74822;DHT22;63353;48.702;8.884;2023-05-10T14:26:33;16.10;99.90
74822;DHT22;63353;48.702;8.884;2023-05-10T14:29:00;16.30;99.90
74822;DHT22;63353;48.702;8.884;2023-05-10T14:31:28;16.30;99.90
74822;DHT22;63353;48.702;8.884;2023-05-10T14:33:58;16.30;99.90
74822;DHT22;63353;48.702;8.884;2023-05-10T14:36:28;16.30;99.90
74822;DHT22;63353;48.702;8.884;2023-05-10T14:38:55;16.30;99.90
74822;DHT22;63353;48.702;8.884;2023-05-10T14:41:24;16.30;99.90
74822;DHT22;63353;48.702;8.884;2023-05-10T14:43:53;16.30;99.90
74822;DHT22;63353;48.702;8.884;2023-05-10T14:46:18;16.30;99.90
74822;DHT22;63353;48.702;8.884;2023-05-10T14:48:53;16.60;99.90
74822;DHT22;63353;48.702;8.884;2023-05-10T14:51:19;16.80;99.90
74822;DHT22;63353;48.702;8.884;2023-05-10T14:53:47;16.70;99.90
74822;DHT22;63353;48.702;8.884;2023-05-10T14:56:13;16.70;99.90
74822;DHT22;63353;48.702;8.884;2023-05-10T14:58:39;16.60;99.90
74822;DHT22;63353;48.702;8.884;2023-05-10T15:01:04;16.70;99.90
74822;DHT22;63353;48.702;8.884;2023-05-10T15:03:33;16.90;99.90
74822;DHT22;63353;48.702;8.884;2023-05-10T15:05:59;16.90;99.90
74822;DHT22;63353;48.702;8.884;2023-05-10T15:08:24;17.10;99.90
74822;DHT22;63353;48.702;8.884;2023-05-10T15:10:51;17.10;99.90
74822;DHT22;63353;48.702;8.884;2023-05-10T15:13:16;17.10;99.90
74822;DHT22;63353;48.702;8.884;2023-05-10T15:15:42;17.30;99.90
74822;DHT22;63353;48.702;8.884;2023-05-10T15:18:11;17.50;99.90
74822;DHT22;63353;48.702;8.884;2023-05-10T15:20:36;17.50;99.90
74822;DHT22;63353;48.702;8.884;2023-05-10T15:23:02;17.40;99.90
74822;DHT22;63353;48.702;8.884;2023-05-10T15:25:29;17.20;99.90
74822;DHT22;63353;48.702;8.884;2023-05-10T15:27:55;17.20;99.90
74822;DHT22;63353;48.702;8.884;2023-05-10T15:30:21;17.10;99.90
74822;DHT22;63353;48.702;8.884;2023-05-10T15:32:46;17.00;99.90
74822;DHT22;63353;48.702;8.884;2023-05-10T15:35:12;16.90;99.90
74822;DHT22;63353;48.702;8.884;2023-05-10T15:37:39;16.90;99.90
74822;DHT22;63353;48.702;8.884;2023-05-10T15:40:05;16.70;99.90
74822;DHT22;63353;48.702;8.884;2023-05-10T15:42:31;16.70;99.90
74822;DHT22;63353;48.702;8.884;2023-05-10T15:44:57;16.90;99.90
74822;DHT22;63353;48.702;8.884;2023-05-10T15:47:24;16.60;99.90
74822;DHT22;63353;48.702;8.884;2023-05-10T15:49:49;16.70;99.90
74822;DHT22;63353;48.702;8.884;2023-05-10T15:52:15;16.80;99.90
74822;DHT22;63353;48.702;8.884;2023-05-10T15:54:44;16.60;99.90
74822;DHT22;63353;48.702;8.884;2023-05-10T15:57:11;16.40;99.90
74822;DHT22;63353;48.702;8.884;2023-05-10T15:59:37;16.20;99.90
74822;DHT22;63353;48.702;8.884;2023-05-10T16:02:03;16.10;99.90
74822;DHT22;63353;48.702;8.884;2023-05-10T16:04:35;15.80;99.90
74822;DHT22;63353;48.702;8.884;2023-05-10T16:07:00;15.70;99.90
74822;DHT22;63353;48.702;8.884;2023-05-10T16:09:29;15.50;99.90
74822;DHT22;63353;48.702;8.884;2023-05-10T16:11:55;15.40;99.90
74822;DHT22;63353;48.702;8.884;2023-05-10T16:14:24;15.30;99.90
74822;DHT22;63353;48.702;8.884;2023-05-10T16:16:55;15.10;99.90